sensor_id;sensor_type;location;lat;lon;timestamp;pressure;altitude;pressure_sealevel;temperature;humidity
3250;BME280;1637;42.020;23.992;2022-10-31T00:01:23;93260.31;;;8.67;81.10
3250;BME280;1637;42.020;23.992;2022-10-31T00:03:50;93260.72;;;8.76;81.28
3250;BME280;1637;42.020;23.992;2022-10-31T00:06:19;93258.75;;;8.52;81.67
3250;BME280;1637;42.020;23.992;2022-10-31T00:08:46;93260.00;;;8.86;80.87
3250;BME280;1637;42.020;23.992;2022-10-31T00:11:13;93262.56;;;8.58;82.21
3250;BME280;1637;42.020;23.992;2022-10-31T00:13:40;93263.44;;;8.04;84.43
3250;BME280;1637;42.020;23.992;2022-10-31T00:16:13;93267.25;;;8.03;85.07
3250;BME280;1637;42.020;23.992;2022-10-31T00:18:40;93267.06;;;8.40;83.71
3250;BME280;1637;42.020;23.992;2022-10-31T00:21:07;93250.41;;;8.68;82.08
3250;BME280;1637;42.020;23.992;2022-10-31T00:23:35;93254.13;;;8.42;82.63
3250;BME280;1637;42.020;23.992;2022-10-31T00:26:03;93254.53;;;8.47;83.04
3250;BME280;1637;42.020;23.992;2022-10-31T00:28:30;93262.78;;;8.21;84.77
3250;BME280;1637;42.020;23.992;2022-10-31T00:31:00;93252.81;;;8.14;85.88
3250;BME280;1637;42.020;23.992;2022-10-31T00:33:28;93249.78;;;8.16;85.14
3250;BME280;1637;42.020;23.992;2022-10-31T00:35:55;93258.94;;;8.18;84.56
3250;BME280;1637;42.020;23.992;2022-10-31T00:38:22;93259.53;;;8.63;82.63
3250;BME280;1637;42.020;23.992;2022-10-31T00:40:51;93247.63;;;8.39;82.59
3250;BME280;1637;42.020;23.992;2022-10-31T00:43:18;93255.97;;;8.31;84.68
3250;BME280;1637;42.020;23.992;2022-10-31T00:45:45;93259.72;;;8.22;85.52
3250;BME280;1637;42.020;23.992;2022-10-31T00:48:11;93258.25;;;8.32;84.95
3250;BME280;1637;42.020;23.992;2022-10-31T00:50:38;93259.78;;;8.30;85.10
3250;BME280;1637;42.020;23.992;2022-10-31T00:53:06;93262.00;;;8.20;85.03
3250;BME280;1637;42.020;23.992;2022-10-31T00:55:32;93254.25;;;8.81;82.58
3250;BME280;1637;42.020;23.992;2022-10-31T00:58:01;93261.94;;;9.00;81.42
3250;BME280;1637;42.020;23.992;2022-10-31T01:00:27;93253.75;;;8.43;84.03
3250;BME280;1637;42.020;23.992;2022-10-31T01:02:54;93251.81;;;8.37;84.26
3250;BME280;1637;42.020;23.992;2022-10-31T01:05:21;93254.72;;;8.14;85.29
3250;BME280;1637;42.020;23.992;2022-10-31T01:07:48;93257.94;;;8.44;84.19
3250;BME280;1637;42.020;23.992;2022-10-31T01:10:15;93271.31;;;8.44;84.02
3250;BME280;1637;42.020;23.992;2022-10-31T01:12:44;93221.50;;;8.01;84.69
3250;BME280;1637;42.020;23.992;2022-10-31T01:15:15;93252.69;;;8.66;82.97
3250;BME280;1637;42.020;23.992;2022-10-31T01:17:42;93251.19;;;8.72;82.56
3250;BME280;1637;42.020;23.992;2022-10-31T01:20:11;93252.25;;;8.46;83.09
3250;BME280;1637;42.020;23.992;2022-10-31T01:22:38;93261.69;;;8.33;84.38
3250;BME280;1637;42.020;23.992;2022-10-31T01:25:07;93251.41;;;8.31;85.44
3250;BME280;1637;42.020;23.992;2022-10-31T01:27:34;93249.84;;;8.26;85.57
3250;BME280;1637;42.020;23.992;2022-10-31T01:30:00;93252.56;;;8.34;85.49
3250;BME280;1637;42.020;23.992;2022-10-31T01:32:29;93253.69;;;8.33;84.87
3250;BME280;1637;42.020;23.992;2022-10-31T01:34:55;93253.78;;;8.50;84.91
3250;BME280;1637;42.020;23.992;2022-10-31T01:37:22;93247.72;;;8.64;84.42
3250;BME280;1637;42.020;23.992;2022-10-31T01:39:49;93220.66;;;8.69;82.80
3250;BME280;1637;42.020;23.992;2022-10-31T01:42:19;93243.94;;;8.79;83.28
3250;BME280;1637;42.020;23.992;2022-10-31T01:44:57;93253.50;;;8.87;82.40
3250;BME280;1637;42.020;23.992;2022-10-31T01:47:33;93241.97;;;8.55;83.99
3250;BME280;1637;42.020;23.992;2022-10-31T01:50:05;93246.59;;;8.65;83.92
3250;BME280;1637;42.020;23.992;2022-10-31T01:52:38;93246.91;;;8.53;84.79
3250;BME280;1637;42.020;23.992;2022-10-31T01:55:10;93256.09;;;8.59;84.11
3250;BME280;1637;42.020;23.992;2022-10-31T01:57:41;93245.72;;;8.36;86.50
3250;BME280;1637;42.020;23.992;2022-10-31T02:00:11;93269.44;;;8.52;86.35
3250;BME280;1637;42.020;23.992;2022-10-31T02:02:41;93254.69;;;9.08;83.25
3250;BME280;1637;42.020;23.992;2022-10-31T02:05:11;93256.13;;;8.73;84.40
3250;BME280;1637;42.020;23.992;2022-10-31T02:07:42;93240.09;;;8.73;84.77
3250;BME280;1637;42.020;23.992;2022-10-31T02:10:10;93252.41;;;9.17;82.74
3250;BME280;1637;42.020;23.992;2022-10-31T02:12:38;93275.22;;;8.72;84.31
3250;BME280;1637;42.020;23.992;2022-10-31T02:15:07;93255.84;;;9.21;82.87
3250;BME280;1637;42.020;23.992;2022-10-31T02:17:34;93254.63;;;8.79;84.71
3250;BME280;1637;42.020;23.992;2022-10-31T02:20:12;93258.53;;;9.14;84.25
3250;BME280;1637;42.020;23.992;2022-10-31T02:22:54;93248.59;;;9.11;83.83
3250;BME280;1637;42.020;23.992;2022-10-31T02:25:54;93257.38;;;9.15;83.88
3250;BME280;1637;42.020;23.992;2022-10-31T02:28:40;93262.31;;;8.99;83.69
3250;BME280;1637;42.020;23.992;2022-10-31T02:31:22;93259.31;;;9.25;83.71
3250;BME280;1637;42.020;23.992;2022-10-31T02:33:57;93261.94;;;9.00;83.69
3250;BME280;1637;42.020;23.992;2022-10-31T02:36:28;93258.50;;;9.03;84.40
3250;BME280;1637;42.020;23.992;2022-10-31T02:39:04;93265.38;;;9.04;84.39
3250;BME280;1637;42.020;23.992;2022-10-31T02:41:40;93264.97;;;8.91;84.81
3250;BME280;1637;42.020;23.992;2022-10-31T02:44:13;93263.44;;;8.90;85.10
3250;BME280;1637;42.020;23.992;2022-10-31T02:46:48;93269.19;;;9.03;84.10
3250;BME280;1637;42.020;23.992;2022-10-31T02:49:21;93269.19;;;9.00;84.28
3250;BME280;1637;42.020;23.992;2022-10-31T02:51:50;93263.09;;;9.06;83.69
3250;BME280;1637;42.020;23.992;2022-10-31T02:54:22;93272.25;;;9.09;83.90
3250;BME280;1637;42.020;23.992;2022-10-31T02:56:51;93265.41;;;9.25;82.54
3250;BME280;1637;42.020;23.992;2022-10-31T02:59:20;93279.50;;;9.15;83.52
3250;BME280;1637;42.020;23.992;2022-10-31T03:02:09;93272.25;;;9.09;83.67
3250;BME280;1637;42.020;23.992;2022-10-31T03:04:55;93276.81;;;8.98;84.51
3250;BME280;1637;42.020;23.992;2022-10-31T03:07:29;93275.34;;;9.36;82.21
3250;BME280;1637;42.020;23.992;2022-10-31T03:10:03;93286.03;;;9.43;82.34
3250;BME280;1637;42.020;23.992;2022-10-31T03:12:38;93276.13;;;9.43;81.49
3250;BME280;1637;42.020;23.992;2022-10-31T03:15:13;93279.16;;;9.31;81.63
3250;BME280;1637;42.020;23.992;2022-10-31T03:17:50;93287.56;;;9.26;82.82
3250;BME280;1637;42.020;23.992;2022-10-31T03:20:19;93288.28;;;9.05;83.74
3250;BME280;1637;42.020;23.992;2022-10-31T03:22:49;93289.09;;;9.38;82.92
3250;BME280;1637;42.020;23.992;2022-10-31T03:25:16;93285.28;;;9.28;82.42
3250;BME280;1637;42.020;23.992;2022-10-31T03:27:44;93291.03;;;9.48;82.56
3250;BME280;1637;42.020;23.992;2022-10-31T03:30:13;93283.38;;;9.39;82.34
3250;BME280;1637;42.020;23.992;2022-10-31T03:32:44;93280.63;;;8.96;84.55
3250;BME280;1637;42.020;23.992;2022-10-31T03:35:15;93281.81;;;9.20;83.04
3250;BME280;1637;42.020;23.992;2022-10-31T03:37:44;93295.53;;;9.08;83.74
3250;BME280;1637;42.020;23.992;2022-10-31T03:40:14;93289.88;;;9.42;83.05
3250;BME280;1637;42.020;23.992;2022-10-31T03:42:48;93287.94;;;9.24;83.75
3250;BME280;1637;42.020;23.992;2022-10-31T03:45:21;93292.91;;;9.44;82.64
3250;BME280;1637;42.020;23.992;2022-10-31T03:47:51;93291.38;;;9.25;82.96
3250;BME280;1637;42.020;23.992;2022-10-31T03:50:19;93299.00;;;9.26;83.38
3250;BME280;1637;42.020;23.992;2022-10-31T03:52:49;93295.91;;;9.03;84.39
3250;BME280;1637;42.020;23.992;2022-10-31T03:55:19;93292.88;;;9.12;85.15
3250;BME280;1637;42.020;23.992;2022-10-31T03:57:52;93296.72;;;9.21;84.64
3250;BME280;1637;42.020;23.992;2022-10-31T04:00:22;93287.09;;;8.95;85.92
3250;BME280;1637;42.020;23.992;2022-10-31T04:02:54;93288.72;;;9.32;84.61
3250;BME280;1637;42.020;23.992;2022-10-31T04:05:22;93293.25;;;9.17;85.19
3250;BME280;1637;42.020;23.992;2022-10-31T04:07:53;93288.28;;;9.16;85.61
3250;BME280;1637;42.020;23.992;2022-10-31T04:10:22;93303.94;;;9.03;86.59
3250;BME280;1637;42.020;23.992;2022-10-31T04:12:53;93305.88;;;9.24;85.60
3250;BME280;1637;42.020;23.992;2022-10-31T04:15:23;93277.59;;;9.09;86.49
3250;BME280;1637;42.020;23.992;2022-10-31T04:17:55;93299.38;;;9.18;86.85
3250;BME280;1637;42.020;23.992;2022-10-31T04:20:31;93342.50;;;9.16;86.06
3250;BME280;1637;42.020;23.992;2022-10-31T04:22:58;93297.50;;;9.40;85.03
3250;BME280;1637;42.020;23.992;2022-10-31T04:25:25;93296.72;;;9.39;84.90
3250;BME280;1637;42.020;23.992;2022-10-31T04:27:52;93297.53;;;9.50;85.71
3250;BME280;1637;42.020;23.992;2022-10-31T04:30:19;93308.97;;;9.58;84.54
3250;BME280;1637;42.020;23.992;2022-10-31T04:32:46;93304.38;;;9.48;84.23
3250;BME280;1637;42.020;23.992;2022-10-31T04:35:14;93289.06;;;9.20;86.17
3250;BME280;1637;42.020;23.992;2022-10-31T04:37:41;93313.19;;;9.66;84.03
3250;BME280;1637;42.020;23.992;2022-10-31T04:40:09;93299.06;;;9.51;84.42
3250;BME280;1637;42.020;23.992;2022-10-31T04:42:36;93313.56;;;9.57;85.05
3250;BME280;1637;42.020;23.992;2022-10-31T04:45:04;93313.56;;;9.47;84.33
3250;BME280;1637;42.020;23.992;2022-10-31T04:47:31;93296.38;;;9.48;84.52
3250;BME280;1637;42.020;23.992;2022-10-31T04:49:58;93218.44;;;9.14;85.87
3250;BME280;1637;42.020;23.992;2022-10-31T04:52:26;93312.41;;;10.19;81.87
3250;BME280;1637;42.020;23.992;2022-10-31T04:54:53;93294.06;;;9.78;82.64
3250;BME280;1637;42.020;23.992;2022-10-31T04:57:20;93313.16;;;9.98;81.73
3250;BME280;1637;42.020;23.992;2022-10-31T04:59:47;93323.88;;;10.05;81.38
3250;BME280;1637;42.020;23.992;2022-10-31T05:02:14;93314.72;;;9.95;81.70
3250;BME280;1637;42.020;23.992;2022-10-31T05:04:40;93326.97;;;9.96;82.01
3250;BME280;1637;42.020;23.992;2022-10-31T05:07:07;93327.31;;;9.84;82.77
3250;BME280;1637;42.020;23.992;2022-10-31T05:09:35;93319.28;;;9.59;84.84
3250;BME280;1637;42.020;23.992;2022-10-31T05:12:02;93330.00;;;9.74;84.12
3250;BME280;1637;42.020;23.992;2022-10-31T05:14:29;93328.84;;;9.46;85.08
3250;BME280;1637;42.020;23.992;2022-10-31T05:16:56;93334.19;;;9.82;84.38
3250;BME280;1637;42.020;23.992;2022-10-31T05:19:23;93332.66;;;10.13;82.43
3250;BME280;1637;42.020;23.992;2022-10-31T05:21:50;93334.19;;;10.24;81.51
3250;BME280;1637;42.020;23.992;2022-10-31T05:24:16;93336.09;;;10.06;81.62
3250;BME280;1637;42.020;23.992;2022-10-31T05:26:44;93333.06;;;10.04;81.74
3250;BME280;1637;42.020;23.992;2022-10-31T05:29:11;93343.00;;;9.93;82.61
3250;BME280;1637;42.020;23.992;2022-10-31T05:31:38;93338.03;;;10.09;82.37
3250;BME280;1637;42.020;23.992;2022-10-31T05:34:05;93338.03;;;10.09;82.37
3250;BME280;1637;42.020;23.992;2022-10-31T05:36:32;93351.03;;;10.21;83.00
3250;BME280;1637;42.020;23.992;2022-10-31T05:38:59;93339.47;;;10.60;82.37
3250;BME280;1637;42.020;23.992;2022-10-31T05:41:25;93344.88;;;10.53;81.19
3250;BME280;1637;42.020;23.992;2022-10-31T05:43:53;93358.25;;;10.56;80.47
3250;BME280;1637;42.020;23.992;2022-10-31T05:46:20;93355.19;;;10.58;81.06
3250;BME280;1637;42.020;23.992;2022-10-31T05:48:47;93347.56;;;10.53;80.77
3250;BME280;1637;42.020;23.992;2022-10-31T05:51:14;93361.66;;;10.78;80.15
3250;BME280;1637;42.020;23.992;2022-10-31T05:53:40;93358.06;;;11.13;78.32
3250;BME280;1637;42.020;23.992;2022-10-31T05:56:07;93359.22;;;11.12;78.54
3250;BME280;1637;42.020;23.992;2022-10-31T05:58:34;93356.81;;;11.35;77.49
3250;BME280;1637;42.020;23.992;2022-10-31T06:01:02;93359.72;;;11.62;77.00
3250;BME280;1637;42.020;23.992;2022-10-31T06:03:29;93334.06;;;11.61;75.92
3250;BME280;1637;42.020;23.992;2022-10-31T06:05:56;93357.66;;;11.88;74.71
3250;BME280;1637;42.020;23.992;2022-10-31T06:08:23;93368.72;;;11.97;75.23
3250;BME280;1637;42.020;23.992;2022-10-31T06:10:49;93371.78;;;11.95;74.75
3250;BME280;1637;42.020;23.992;2022-10-31T06:13:18;93378.75;;;11.86;74.92
3250;BME280;1637;42.020;23.992;2022-10-31T06:15:45;93371.94;;;11.70;75.25
3250;BME280;1637;42.020;23.992;2022-10-31T06:18:13;93372.69;;;11.78;75.67
3250;BME280;1637;42.020;23.992;2022-10-31T06:20:40;93372.69;;;11.78;75.56
3250;BME280;1637;42.020;23.992;2022-10-31T06:23:06;93370.63;;;12.00;74.83
3250;BME280;1637;42.020;23.992;2022-10-31T06:25:33;93397.59;;;11.79;75.57
3250;BME280;1637;42.020;23.992;2022-10-31T06:28:00;93378.03;;;11.82;76.28
3250;BME280;1637;42.020;23.992;2022-10-31T06:30:27;93380.66;;;11.89;75.92
3250;BME280;1637;42.020;23.992;2022-10-31T06:32:54;93356.56;;;11.82;75.44
3250;BME280;1637;42.020;23.992;2022-10-31T06:35:22;93380.44;;;12.17;75.43
3250;BME280;1637;42.020;23.992;2022-10-31T06:37:52;93385.94;;;12.48;74.68
3250;BME280;1637;42.020;23.992;2022-10-31T06:40:19;93392.91;;;12.83;72.70
3250;BME280;1637;42.020;23.992;2022-10-31T06:42:46;93397.16;;;12.80;72.95
3250;BME280;1637;42.020;23.992;2022-10-31T06:45:13;93399.13;;;12.76;72.65
3250;BME280;1637;42.020;23.992;2022-10-31T06:47:39;93395.69;;;13.09;71.77
3250;BME280;1637;42.020;23.992;2022-10-31T06:50:07;93398.66;;;12.85;72.84
3250;BME280;1637;42.020;23.992;2022-10-31T06:52:35;93384.00;;;12.89;72.49
3250;BME280;1637;42.020;23.992;2022-10-31T06:55:02;93399.22;;;13.03;72.67
3250;BME280;1637;42.020;23.992;2022-10-31T06:57:29;93397.94;;;13.18;72.07
3250;BME280;1637;42.020;23.992;2022-10-31T06:59:56;93402.28;;;13.05;72.86
3250;BME280;1637;42.020;23.992;2022-10-31T07:02:23;93397.94;;;13.18;72.36
3250;BME280;1637;42.020;23.992;2022-10-31T07:04:49;93400.84;;;13.31;71.97
3250;BME280;1637;42.020;23.992;2022-10-31T07:07:16;93397.34;;;13.34;71.97
3250;BME280;1637;42.020;23.992;2022-10-31T07:09:44;93397.00;;;13.62;70.84
3250;BME280;1637;42.020;23.992;2022-10-31T07:12:11;93394.16;;;13.73;69.91
3250;BME280;1637;42.020;23.992;2022-10-31T07:14:38;93398.06;;;13.95;69.88
3250;BME280;1637;42.020;23.992;2022-10-31T07:17:05;93401.88;;;14.75;66.98
3250;BME280;1637;42.020;23.992;2022-10-31T07:19:31;93404.09;;;16.15;63.08
3250;BME280;1637;42.020;23.992;2022-10-31T07:21:58;93403.75;;;16.94;59.64
3250;BME280;1637;42.020;23.992;2022-10-31T07:24:25;93396.84;;;17.64;57.13
3250;BME280;1637;42.020;23.992;2022-10-31T07:26:53;93401.69;;;18.48;55.29
3250;BME280;1637;42.020;23.992;2022-10-31T07:29:20;93396.06;;;19.59;52.39
3250;BME280;1637;42.020;23.992;2022-10-31T07:31:47;93388.03;;;21.16;48.07
3250;BME280;1637;42.020;23.992;2022-10-31T07:34:13;93404.69;;;22.33;45.52
3250;BME280;1637;42.020;23.992;2022-10-31T07:36:40;93405.44;;;21.73;46.20
3250;BME280;1637;42.020;23.992;2022-10-31T07:39:07;93409.56;;;22.29;44.47
3250;BME280;1637;42.020;23.992;2022-10-31T07:41:34;93402.41;;;24.28;40.96
3250;BME280;1637;42.020;23.992;2022-10-31T07:44:02;93408.31;;;23.68;41.90
3250;BME280;1637;42.020;23.992;2022-10-31T07:46:29;93413.34;;;23.21;42.81
3250;BME280;1637;42.020;23.992;2022-10-31T07:48:56;93409.13;;;24.62;40.03
3250;BME280;1637;42.020;23.992;2022-10-31T07:51:22;93397.94;;;25.15;38.84
3250;BME280;1637;42.020;23.992;2022-10-31T07:53:49;93410.53;;;26.20;37.61
3250;BME280;1637;42.020;23.992;2022-10-31T07:56:16;93402.06;;;24.90;39.50
3250;BME280;1637;42.020;23.992;2022-10-31T07:58:43;93401.16;;;26.58;37.18
3250;BME280;1637;42.020;23.992;2022-10-31T08:01:11;93415.88;;;26.60;37.22
3250;BME280;1637;42.020;23.992;2022-10-31T08:03:38;93404.19;;;26.65;36.77
3250;BME280;1637;42.020;23.992;2022-10-31T08:06:05;93412.78;;;26.16;37.21
3250;BME280;1637;42.020;23.992;2022-10-31T08:08:32;93410.59;;;25.99;38.44
3250;BME280;1637;42.020;23.992;2022-10-31T08:10:58;93399.44;;;26.97;36.52
3250;BME280;1637;42.020;23.992;2022-10-31T08:13:25;93410.22;;;27.01;36.45
3250;BME280;1637;42.020;23.992;2022-10-31T08:15:52;93408.06;;;26.22;36.62
3250;BME280;1637;42.020;23.992;2022-10-31T08:18:21;93397.09;;;24.74;38.63
3250;BME280;1637;42.020;23.992;2022-10-31T08:20:49;93404.34;;;24.92;39.01
3250;BME280;1637;42.020;23.992;2022-10-31T08:23:16;93400.13;;;24.41;39.67
3250;BME280;1637;42.020;23.992;2022-10-31T08:25:43;93400.09;;;24.12;39.95
3250;BME280;1637;42.020;23.992;2022-10-31T08:28:12;93401.66;;;25.12;38.15
3250;BME280;1637;42.020;23.992;2022-10-31T08:30:39;93393.66;;;24.94;38.61
3250;BME280;1637;42.020;23.992;2022-10-31T08:33:09;93398.78;;;25.88;36.94
3250;BME280;1637;42.020;23.992;2022-10-31T08:35:38;93406.19;;;25.61;37.09
3250;BME280;1637;42.020;23.992;2022-10-31T08:38:05;93404.09;;;24.75;38.55
3250;BME280;1637;42.020;23.992;2022-10-31T08:40:33;93398.84;;;23.54;40.84
3250;BME280;1637;42.020;23.992;2022-10-31T08:43:01;93389.47;;;21.90;44.05
3250;BME280;1637;42.020;23.992;2022-10-31T08:45:29;93390.59;;;21.47;45.24
3250;BME280;1637;42.020;23.992;2022-10-31T08:47:57;93390.75;;;21.61;45.03
3250;BME280;1637;42.020;23.992;2022-10-31T08:50:25;93391.78;;;22.43;43.94
3250;BME280;1637;42.020;23.992;2022-10-31T08:52:53;93392.31;;;22.14;43.94
3250;BME280;1637;42.020;23.992;2022-10-31T08:55:25;93391.66;;;21.49;45.25
3250;BME280;1637;42.020;23.992;2022-10-31T08:57:54;93389.41;;;21.57;45.49
3250;BME280;1637;42.020;23.992;2022-10-31T09:00:21;93402.09;;;22.39;44.07
3250;BME280;1637;42.020;23.992;2022-10-31T09:02:54;93405.47;;;23.62;41.52
3250;BME280;1637;42.020;23.992;2022-10-31T09:05:21;93404.06;;;23.04;41.59
3250;BME280;1637;42.020;23.992;2022-10-31T09:07:48;93395.38;;;23.68;41.42
3250;BME280;1637;42.020;23.992;2022-10-31T09:10:16;93389.66;;;22.71;42.53
3250;BME280;1637;42.020;23.992;2022-10-31T09:12:43;93392.69;;;22.40;43.10
3250;BME280;1637;42.020;23.992;2022-10-31T09:15:10;93395.25;;;22.01;44.47
3250;BME280;1637;42.020;23.992;2022-10-31T09:17:37;93397.06;;;21.95;43.98
3250;BME280;1637;42.020;23.992;2022-10-31T09:20:04;93394.25;;;21.25;45.74
3250;BME280;1637;42.020;23.992;2022-10-31T09:22:31;93405.25;;;21.04;46.04
3250;BME280;1637;42.020;23.992;2022-10-31T09:24:57;93410.59;;;21.53;45.41
3250;BME280;1637;42.020;23.992;2022-10-31T09:27:26;93411.59;;;21.83;44.39
3250;BME280;1637;42.020;23.992;2022-10-31T09:29:52;93407.56;;;21.23;45.08
3250;BME280;1637;42.020;23.992;2022-10-31T09:32:19;93406.63;;;21.08;46.13
3250;BME280;1637;42.020;23.992;2022-10-31T09:34:46;93406.94;;;21.10;45.62
3250;BME280;1637;42.020;23.992;2022-10-31T09:37:13;93403.34;;;21.32;45.42
3250;BME280;1637;42.020;23.992;2022-10-31T09:39:39;93399.38;;;21.42;45.76
3250;BME280;1637;42.020;23.992;2022-10-31T09:42:23;93396.97;;;21.53;45.04
3250;BME280;1637;42.020;23.992;2022-10-31T09:44:58;93397.88;;;21.50;45.97
3250;BME280;1637;42.020;23.992;2022-10-31T09:47:40;93400.31;;;21.39;46.09
3250;BME280;1637;42.020;23.992;2022-10-31T09:50:14;93395.16;;;21.41;46.67
3250;BME280;1637;42.020;23.992;2022-10-31T09:52:50;93391.53;;;21.35;46.60
3250;BME280;1637;42.020;23.992;2022-10-31T09:55:34;93406.25;;;23.15;43.26
3250;BME280;1637;42.020;23.992;2022-10-31T09:58:02;93401.63;;;23.06;43.21
3250;BME280;1637;42.020;23.992;2022-10-31T10:00:31;93399.44;;;22.86;43.36
3250;BME280;1637;42.020;23.992;2022-10-31T10:03:06;93393.00;;;22.42;43.82
3250;BME280;1637;42.020;23.992;2022-10-31T10:05:42;93394.28;;;22.22;44.16
3250;BME280;1637;42.020;23.992;2022-10-31T10:08:16;93391.31;;;21.84;45.16
3250;BME280;1637;42.020;23.992;2022-10-31T10:10:49;93395.16;;;21.41;46.25
3250;BME280;1637;42.020;23.992;2022-10-31T10:13:32;93400.88;;;21.06;47.08
3250;BME280;1637;42.020;23.992;2022-10-31T10:16:22;93388.22;;;21.40;46.71
3250;BME280;1637;42.020;23.992;2022-10-31T10:19:05;93390.94;;;21.40;46.43
3250;BME280;1637;42.020;23.992;2022-10-31T10:21:41;93393.50;;;21.52;46.52
3250;BME280;1637;42.020;23.992;2022-10-31T10:24:19;93389.97;;;21.79;45.83
3250;BME280;1637;42.020;23.992;2022-10-31T10:26:53;93383.13;;;21.93;45.46
3250;BME280;1637;42.020;23.992;2022-10-31T10:29:33;93377.38;;;22.00;45.10
3250;BME280;1637;42.020;23.992;2022-10-31T10:32:05;93382.94;;;22.48;44.41
3250;BME280;1637;42.020;23.992;2022-10-31T10:34:39;93379.34;;;21.90;45.29
3250;BME280;1637;42.020;23.992;2022-10-31T10:37:16;93376.00;;;21.86;45.44
3250;BME280;1637;42.020;23.992;2022-10-31T10:39:47;93351.84;;;21.43;46.04
3250;BME280;1637;42.020;23.992;2022-10-31T10:42:16;93370.94;;;21.61;46.54
3250;BME280;1637;42.020;23.992;2022-10-31T10:45:06;93332.47;;;21.13;46.27
3250;BME280;1637;42.020;23.992;2022-10-31T10:48:06;93370.75;;;22.25;45.22
3250;BME280;1637;42.020;23.992;2022-10-31T10:50:39;93371.47;;;22.68;44.11
3250;BME280;1637;42.020;23.992;2022-10-31T10:53:18;93375.09;;;22.98;43.35
3250;BME280;1637;42.020;23.992;2022-10-31T10:56:00;93373.59;;;22.96;43.10
3250;BME280;1637;42.020;23.992;2022-10-31T10:58:30;93367.41;;;22.30;44.21
3250;BME280;1637;42.020;23.992;2022-10-31T11:00:57;93369.38;;;22.29;44.40
3250;BME280;1637;42.020;23.992;2022-10-31T11:03:25;93367.19;;;22.10;44.40
3250;BME280;1637;42.020;23.992;2022-10-31T11:05:53;93371.00;;;21.85;45.16
3250;BME280;1637;42.020;23.992;2022-10-31T11:08:25;93371.06;;;22.27;44.47
3250;BME280;1637;42.020;23.992;2022-10-31T11:10:58;93366.91;;;22.41;44.04
3250;BME280;1637;42.020;23.992;2022-10-31T11:13:25;93367.50;;;22.78;43.70
3250;BME280;1637;42.020;23.992;2022-10-31T11:16:02;93369.47;;;23.01;42.88
3250;BME280;1637;42.020;23.992;2022-10-31T11:18:32;93364.69;;;22.63;43.54
3250;BME280;1637;42.020;23.992;2022-10-31T11:21:02;93359.94;;;22.40;43.98
3250;BME280;1637;42.020;23.992;2022-10-31T11:23:30;93356.03;;;22.32;44.04
3250;BME280;1637;42.020;23.992;2022-10-31T11:25:58;93361.66;;;22.28;43.89
3250;BME280;1637;42.020;23.992;2022-10-31T11:28:26;93362.81;;;21.94;44.51
3250;BME280;1637;42.020;23.992;2022-10-31T11:30:56;93351.09;;;22.21;44.25
3250;BME280;1637;42.020;23.992;2022-10-31T11:33:28;93347.41;;;22.24;44.04
3250;BME280;1637;42.020;23.992;2022-10-31T11:35:57;93351.88;;;22.12;44.59
3250;BME280;1637;42.020;23.992;2022-10-31T11:38:31;93355.66;;;22.15;43.89
3250;BME280;1637;42.020;23.992;2022-10-31T11:41:11;93353.47;;;21.77;45.01
3250;BME280;1637;42.020;23.992;2022-10-31T11:43:44;93343.66;;;21.43;45.64
3250;BME280;1637;42.020;23.992;2022-10-31T11:46:18;93338.38;;;21.48;45.66
3250;BME280;1637;42.020;23.992;2022-10-31T11:48:47;93336.13;;;22.07;44.63
3250;BME280;1637;42.020;23.992;2022-10-31T11:51:21;93340.50;;;22.14;43.98
3250;BME280;1637;42.020;23.992;2022-10-31T11:53:51;93341.81;;;22.51;43.72
3250;BME280;1637;42.020;23.992;2022-10-31T11:56:19;93343.56;;;23.11;42.48
3250;BME280;1637;42.020;23.992;2022-10-31T11:58:55;93341.69;;;23.56;40.73
3250;BME280;1637;42.020;23.992;2022-10-31T12:01:25;93341.03;;;24.05;40.28
3250;BME280;1637;42.020;23.992;2022-10-31T12:03:59;93338.41;;;23.96;39.84
3250;BME280;1637;42.020;23.992;2022-10-31T12:06:33;93338.06;;;23.20;41.52
3250;BME280;1637;42.020;23.992;2022-10-31T12:09:01;93332.06;;;23.07;41.35
3250;BME280;1637;42.020;23.992;2022-10-31T12:11:39;93338.81;;;22.73;42.55
3250;BME280;1637;42.020;23.992;2022-10-31T12:14:20;93332.50;;;22.34;43.16
3250;BME280;1637;42.020;23.992;2022-10-31T12:16:55;93336.44;;;21.91;44.02
3250;BME280;1637;42.020;23.992;2022-10-31T12:19:33;93326.56;;;21.51;45.13
3250;BME280;1637;42.020;23.992;2022-10-31T12:22:10;93336.44;;;21.31;45.32
3250;BME280;1637;42.020;23.992;2022-10-31T12:24:48;93329.78;;;21.32;45.69
3250;BME280;1637;42.020;23.992;2022-10-31T12:27:28;93340.97;;;21.34;45.56
3250;BME280;1637;42.020;23.992;2022-10-31T12:30:08;93337.19;;;21.31;45.76
3250;BME280;1637;42.020;23.992;2022-10-31T12:32:46;93342.50;;;21.35;45.68
3250;BME280;1637;42.020;23.992;2022-10-31T12:35:38;93335.19;;;21.41;45.50
3250;BME280;1637;42.020;23.992;2022-10-31T12:38:30;93333.41;;;21.38;45.46
3250;BME280;1637;42.020;23.992;2022-10-31T12:41:18;93336.09;;;21.10;45.75
3250;BME280;1637;42.020;23.992;2022-10-31T12:43:52;93333.56;;;20.98;45.83
3250;BME280;1637;42.020;23.992;2022-10-31T12:46:30;93334.00;;;20.96;45.73
3250;BME280;1637;42.020;23.992;2022-10-31T12:49:15;93331.84;;;21.00;46.14
3250;BME280;1637;42.020;23.992;2022-10-31T12:51:51;93331.41;;;21.02;45.89
3250;BME280;1637;42.020;23.992;2022-10-31T12:54:36;93344.75;;;21.36;45.38
3250;BME280;1637;42.020;23.992;2022-10-31T12:57:14;93337.56;;;21.66;44.94
3250;BME280;1637;42.020;23.992;2022-10-31T12:59:48;93327.22;;;21.88;44.17
3250;BME280;1637;42.020;23.992;2022-10-31T13:02:19;93334.78;;;21.93;43.95
3250;BME280;1637;42.020;23.992;2022-10-31T13:04:50;93340.72;;;21.83;44.38
3250;BME280;1637;42.020;23.992;2022-10-31T13:07:23;93329.25;;;21.70;44.19
3250;BME280;1637;42.020;23.992;2022-10-31T13:09:56;93342.81;;;21.88;43.96
3250;BME280;1637;42.020;23.992;2022-10-31T13:12:27;93336.09;;;21.56;44.12
3250;BME280;1637;42.020;23.992;2022-10-31T13:14:59;93338.47;;;21.63;44.07
3250;BME280;1637;42.020;23.992;2022-10-31T13:17:33;93335.91;;;21.78;43.68
3250;BME280;1637;42.020;23.992;2022-10-31T13:20:14;93340.25;;;21.84;43.67
3250;BME280;1637;42.020;23.992;2022-10-31T13:22:44;93336.69;;;21.60;44.28
3250;BME280;1637;42.020;23.992;2022-10-31T13:25:16;93338.69;;;21.50;44.48
3250;BME280;1637;42.020;23.992;2022-10-31T13:27:49;93334.47;;;21.40;44.81
3250;BME280;1637;42.020;23.992;2022-10-31T13:30:19;93332.16;;;21.57;44.34
3250;BME280;1637;42.020;23.992;2022-10-31T13:32:49;93327.94;;;21.47;44.27